createdAt,value
2022-08-19T00:00:16.769Z,26.15
2022-08-19T00:03:27.466Z,26.15
2022-08-19T00:05:57.625Z,26.26
2022-08-19T00:12:50.510Z,25.92
2022-08-19T00:19:44.506Z,25.71
2022-08-19T00:22:38.890Z,25.65
2022-08-19T00:25:08.275Z,25.70
2022-08-19T00:28:05.410Z,25.85
2022-08-19T00:30:39.649Z,26.05
2022-08-19T00:33:09.164Z,26.08
2022-08-19T00:35:39.675Z,25.98
2022-08-19T00:38:07.915Z,25.91
2022-08-19T00:40:37.931Z,26.09
2022-08-19T00:43:10.965Z,26.13
2022-08-19T00:45:39.127Z,26.29
2022-08-19T00:48:15.090Z,26.15
2022-08-19T00:50:51.823Z,26.15
2022-08-19T00:53:35.065Z,26.12
2022-08-19T00:56:07.346Z,26.25
2022-08-19T00:59:00.714Z,26.08
2022-08-19T01:05:56.413Z,25.93
2022-08-19T01:08:41.569Z,25.86
2022-08-19T01:12:08.682Z,25.75
2022-08-19T01:14:37.219Z,25.50
2022-08-19T01:17:24.173Z,25.12
2022-08-19T01:19:57.289Z,24.96
2022-08-19T01:22:43.251Z,24.99
2022-08-19T01:25:14.993Z,25.12
2022-08-19T01:31:55.201Z,24.83
2022-08-19T01:34:25.602Z,24.76
2022-08-19T01:36:53.686Z,24.64
2022-08-19T01:39:26.981Z,24.48
2022-08-19T01:42:14.167Z,24.51
2022-08-19T01:44:42.964Z,24.43
2022-08-19T01:47:19.016Z,24.28
2022-08-19T01:49:48.111Z,24.43
2022-08-19T01:53:06.971Z,24.44
2022-08-19T01:55:40.992Z,24.35
2022-08-19T01:58:18.747Z,24.17
2022-08-19T02:00:47.473Z,24.14
2022-08-19T02:03:24.854Z,24.12
2022-08-19T02:06:00.592Z,24.35
2022-08-19T02:08:42.462Z,24.41
2022-08-19T02:11:22.650Z,24.51
2022-08-19T02:13:51.466Z,24.41
2022-08-19T02:16:21.701Z,24.62
2022-08-19T02:18:50.266Z,24.37
2022-08-19T02:21:46.459Z,24.12
2022-08-19T02:24:16.647Z,24.09
2022-08-19T02:26:49.785Z,24.03
2022-08-19T02:29:17.903Z,23.99
2022-08-19T02:31:47.989Z,23.82
2022-08-19T02:34:18.826Z,23.66
2022-08-19T02:36:51.939Z,23.68
2022-08-19T02:39:25.563Z,23.51
2022-08-19T02:41:55.030Z,23.59
2022-08-19T02:44:31.322Z,23.57
2022-08-19T02:47:00.261Z,23.51
2022-08-19T02:49:40.727Z,23.55
2022-08-19T02:52:15.051Z,23.39
2022-08-19T02:54:43.207Z,23.31
2022-08-19T02:57:18.571Z,23.35
2022-08-19T02:59:53.572Z,23.25
2022-08-19T03:02:21.930Z,23.24
2022-08-19T03:05:47.947Z,23.41
2022-08-19T03:09:14.638Z,23.41
2022-08-19T03:11:42.882Z,23.61
2022-08-19T03:14:13.794Z,23.66
2022-08-19T03:17:35.773Z,23.73
2022-08-19T03:20:57.680Z,23.34
2022-08-19T03:24:16.840Z,23.42
2022-08-19T03:26:51.980Z,23.45
2022-08-19T03:29:30.294Z,23.20
2022-08-19T03:32:01.839Z,23.24
2022-08-19T03:34:46.000Z,23.20
2022-08-19T03:37:19.304Z,23.15
2022-08-19T03:39:47.440Z,23.18
2022-08-19T03:42:47.752Z,23.30
2022-08-19T03:45:14.273Z,23.30
2022-08-19T03:47:57.666Z,23.28
2022-08-19T03:50:52.844Z,23.10
2022-08-19T03:53:21.968Z,23.06
2022-08-19T03:55:50.066Z,23.06
2022-08-19T03:58:33.362Z,22.83
2022-08-19T04:01:12.666Z,22.73
2022-08-19T04:03:46.495Z,22.80
2022-08-19T04:06:19.129Z,22.65
2022-08-19T04:08:48.743Z,22.90
2022-08-19T04:15:42.741Z,22.72
2022-08-19T04:18:13.307Z,23.00
2022-08-19T04:20:49.732Z,22.99
2022-08-19T04:23:17.916Z,23.12
2022-08-19T04:25:49.348Z,23.18
2022-08-19T04:28:19.853Z,23.32
2022-08-19T04:30:56.217Z,23.27
2022-08-19T04:33:33.960Z,23.10
2022-08-19T04:36:04.332Z,22.89
2022-08-19T04:38:40.274Z,22.53
2022-08-19T04:41:26.724Z,22.59
2022-08-19T04:44:15.180Z,22.76
2022-08-19T04:46:51.134Z,22.82
2022-08-19T04:49:23.973Z,22.86
2022-08-19T04:52:16.817Z,22.82
2022-08-19T04:54:49.260Z,22.83
2022-08-19T04:57:21.314Z,22.92
2022-08-19T04:59:49.641Z,23.11
2022-08-19T05:02:19.950Z,23.12
2022-08-19T05:04:51.601Z,23.25
2022-08-19T05:07:21.808Z,23.37
2022-08-19T05:09:58.180Z,23.47
2022-08-19T05:12:29.847Z,23.41
2022-08-19T05:15:02.008Z,23.63
2022-08-19T05:17:34.885Z,23.72
2022-08-19T05:20:28.951Z,23.72
2022-08-19T05:22:57.118Z,23.85
2022-08-19T05:25:26.759Z,24.07
2022-08-19T05:27:54.941Z,24.23
2022-08-19T05:30:33.649Z,24.37
2022-08-19T05:33:14.883Z,24.73
2022-08-19T05:35:45.274Z,24.73
2022-08-19T05:38:15.463Z,24.79
2022-08-19T05:40:46.944Z,24.82
2022-08-19T05:43:16.541Z,24.90
2022-08-19T05:45:45.158Z,25.10
2022-08-19T05:48:13.911Z,25.13
2022-08-19T05:50:45.396Z,25.33
2022-08-19T05:53:17.421Z,25.55
2022-08-19T05:55:45.678Z,25.80
2022-08-19T05:58:13.906Z,25.91
2022-08-19T06:00:42.196Z,26.02
2022-08-19T06:03:12.669Z,26.16
2022-08-19T06:05:49.460Z,26.35
2022-08-19T06:08:34.269Z,26.65
2022-08-19T06:11:18.782Z,27.02
2022-08-19T06:13:52.030Z,27.33
2022-08-19T06:16:28.847Z,27.52
2022-08-19T06:18:59.273Z,27.73
2022-08-19T06:21:30.544Z,27.94
2022-08-19T06:24:00.649Z,28.04
2022-08-19T06:26:29.502Z,28.19
2022-08-19T06:28:57.635Z,28.31
2022-08-19T06:31:34.717Z,28.51
2022-08-19T06:34:08.296Z,28.70
2022-08-19T06:36:40.671Z,28.83
2022-08-19T06:39:14.539Z,28.94
2022-08-19T06:41:50.606Z,29.06
2022-08-19T06:44:20.769Z,29.13
2022-08-19T06:46:53.661Z,29.20
2022-08-19T06:49:23.839Z,29.25
2022-08-19T06:51:52.998Z,29.11
2022-08-19T06:54:22.777Z,29.24
2022-08-19T06:56:52.225Z,29.42
2022-08-19T06:59:28.301Z,29.47
2022-08-19T07:01:59.813Z,29.49
2022-08-19T07:04:32.735Z,29.55
2022-08-19T07:07:12.509Z,29.66
2022-08-19T07:09:58.363Z,29.85
2022-08-19T07:12:32.369Z,29.92
2022-08-19T07:15:00.871Z,30.10
2022-08-19T07:17:29.669Z,30.20
2022-08-19T07:20:06.968Z,30.34
2022-08-19T07:22:40.582Z,30.48
2022-08-19T07:25:14.604Z,30.64
2022-08-19T07:27:46.253Z,30.82
2022-08-19T07:30:15.684Z,30.88
2022-08-19T07:32:45.813Z,31.20
2022-08-19T07:35:14.551Z,31.37
2022-08-19T07:37:45.310Z,31.44
2022-08-19T07:40:15.400Z,31.50
2022-08-19T07:42:45.939Z,31.54
2022-08-19T07:45:14.095Z,31.65
2022-08-19T07:47:48.093Z,31.84
2022-08-19T07:50:16.791Z,31.88
2022-08-19T07:52:48.021Z,31.92
2022-08-19T07:55:40.162Z,32.01
2022-08-19T07:58:09.517Z,32.04
2022-08-19T08:00:37.635Z,32.11
2022-08-19T08:03:05.976Z,32.16
2022-08-19T08:05:51.616Z,32.11
2022-08-19T08:08:36.874Z,32.29
2022-08-19T08:11:07.747Z,32.43
2022-08-19T08:13:39.068Z,32.64
2022-08-19T08:16:10.392Z,32.77
2022-08-19T08:18:43.368Z,32.78
2022-08-19T08:21:19.307Z,32.84
2022-08-19T08:23:47.480Z,32.78
2022-08-19T08:26:19.385Z,32.70
2022-08-19T08:28:49.463Z,32.90
2022-08-19T08:31:19.620Z,33.08
2022-08-19T08:33:50.282Z,33.07
2022-08-19T08:36:19.338Z,32.98
2022-08-19T08:38:47.615Z,33.11
2022-08-19T08:41:24.961Z,33.21
2022-08-19T08:43:54.436Z,33.29
2022-08-19T08:46:31.263Z,33.31
2022-08-19T08:49:06.740Z,33.49
2022-08-19T08:54:15.222Z,33.68
2022-08-19T08:56:46.974Z,33.77
2022-08-19T08:59:21.302Z,33.89
2022-08-19T09:01:49.731Z,34.07
2022-08-19T09:04:18.455Z,34.28
2022-08-19T09:06:57.153Z,34.29
2022-08-19T09:09:33.559Z,34.43
2022-08-19T09:12:11.697Z,34.28
2022-08-19T09:14:51.200Z,34.47
2022-08-19T09:17:29.200Z,34.54
2022-08-19T09:20:05.758Z,34.54
2022-08-19T09:22:38.882Z,34.73
2022-08-19T09:25:09.137Z,34.76
2022-08-19T09:27:43.684Z,34.73
2022-08-19T09:30:16.381Z,34.71
2022-08-19T09:32:46.413Z,34.79
2022-08-19T09:35:16.839Z,34.90
2022-08-19T09:37:48.687Z,34.99
2022-08-19T09:40:17.363Z,35.13
2022-08-19T09:42:49.908Z,35.31
2022-08-19T09:45:22.780Z,35.43
2022-08-19T09:47:53.823Z,35.47
2022-08-19T09:50:23.047Z,35.58
2022-08-19T09:52:54.110Z,35.58
2022-08-19T09:55:31.568Z,35.51
2022-08-19T09:58:05.490Z,35.58
2022-08-19T10:00:33.706Z,35.70
2022-08-19T10:03:01.858Z,35.71
2022-08-19T10:05:54.550Z,35.86
2022-08-19T10:08:26.716Z,35.80
2022-08-19T10:10:55.956Z,35.99
2022-08-19T10:13:28.070Z,35.88
2022-08-19T10:15:58.371Z,36.05
2022-08-19T10:18:28.229Z,35.82
2022-08-19T10:21:08.637Z,35.82
2022-08-19T10:23:38.376Z,36.22
2022-08-19T10:26:07.519Z,36.29
2022-08-19T10:28:39.304Z,36.18
2022-08-19T10:31:10.090Z,36.11
2022-08-19T10:33:53.213Z,36.64
2022-08-19T10:36:24.988Z,36.35
2022-08-19T10:38:57.007Z,36.41
2022-08-19T10:41:28.921Z,36.62
2022-08-19T10:44:03.978Z,36.77
2022-08-19T10:46:34.384Z,36.77
2022-08-19T10:49:04.033Z,36.60
2022-08-19T10:52:06.640Z,36.77
2022-08-19T10:54:56.690Z,36.76
2022-08-19T10:57:46.008Z,36.85
2022-08-19T11:00:20.367Z,36.78
2022-08-19T11:02:48.676Z,36.85
2022-08-19T11:05:18.200Z,37.11
2022-08-19T11:07:47.256Z,37.10
2022-08-19T11:10:21.761Z,37.31
2022-08-19T11:12:55.158Z,37.17
2022-08-19T11:15:24.811Z,37.31
2022-08-19T11:17:55.608Z,37.46
2022-08-19T11:20:24.730Z,37.70
2022-08-19T11:22:55.123Z,37.59
2022-08-19T11:25:23.342Z,37.55
2022-08-19T11:27:53.257Z,37.26
2022-08-19T11:30:21.969Z,36.99
2022-08-19T11:32:51.511Z,37.08
2022-08-19T11:35:21.072Z,37.59
2022-08-19T11:37:49.262Z,37.31
2022-08-19T11:40:17.839Z,37.35
2022-08-19T11:42:58.546Z,36.95
2022-08-19T11:45:28.371Z,37.18
2022-08-19T11:47:58.306Z,37.49
2022-08-19T11:50:34.546Z,37.66
2022-08-19T11:53:04.961Z,37.36
2022-08-19T11:55:43.442Z,37.11
2022-08-19T11:58:19.034Z,36.41
2022-08-19T12:00:47.660Z,36.70
2022-08-19T12:03:17.492Z,36.76
2022-08-19T12:05:45.671Z,37.47
2022-08-19T12:08:14.942Z,37.39
2022-08-19T12:10:43.819Z,37.33
2022-08-19T12:13:12.262Z,37.04
2022-08-19T12:15:41.911Z,36.94
2022-08-19T12:18:11.155Z,36.83
2022-08-19T12:20:42.763Z,36.71
2022-08-19T12:23:12.472Z,36.43
2022-08-19T12:25:52.495Z,36.54
2022-08-19T12:28:21.769Z,36.77
2022-08-19T12:30:51.098Z,36.84
2022-08-19T12:33:20.553Z,37.05
2022-08-19T12:35:50.337Z,37.33
2022-08-19T12:38:18.537Z,37.23
2022-08-19T12:40:48.496Z,36.90
2022-08-19T12:43:17.810Z,37.19
2022-08-19T12:45:46.121Z,37.50
2022-08-19T12:48:33.859Z,37.66
2022-08-19T12:51:09.104Z,37.83
2022-08-19T12:53:39.108Z,37.66
2022-08-19T12:56:12.192Z,37.47
2022-08-19T12:58:48.770Z,37.42
2022-08-19T13:01:23.014Z,37.08
2022-08-19T13:03:53.293Z,36.83
2022-08-19T13:06:23.698Z,36.85
2022-08-19T13:08:55.454Z,36.84
2022-08-19T13:11:33.447Z,36.54
2022-08-19T13:14:02.806Z,36.46
2022-08-19T13:16:31.247Z,36.33
2022-08-19T13:19:00.061Z,36.29
2022-08-19T13:21:31.004Z,35.65
2022-08-19T13:23:59.604Z,34.24
2022-08-19T13:26:27.877Z,31.57
2022-08-19T13:29:13.888Z,29.97
2022-08-19T13:32:01.633Z,28.36
2022-08-19T13:34:35.083Z,28.31
2022-08-19T13:37:06.400Z,28.63
2022-08-19T13:39:35.905Z,28.70
2022-08-19T13:42:05.797Z,28.80
2022-08-19T13:44:34.561Z,28.99
2022-08-19T13:47:06.762Z,29.07
2022-08-19T13:49:35.635Z,29.18
2022-08-19T13:52:06.548Z,29.45
2022-08-19T13:54:34.771Z,29.59
2022-08-19T13:57:02.957Z,29.73
2022-08-19T13:59:31.062Z,29.83
2022-08-19T14:02:00.627Z,30.07
2022-08-19T14:04:28.986Z,30.17
2022-08-19T14:06:57.191Z,30.14
2022-08-19T14:09:26.857Z,30.24
2022-08-19T14:11:56.405Z,30.16
2022-08-19T14:14:24.600Z,30.25
2022-08-19T14:16:52.972Z,30.47
2022-08-19T14:19:22.373Z,30.68
2022-08-19T14:21:51.721Z,30.86
2022-08-19T14:24:20.091Z,30.95
2022-08-19T14:26:49.954Z,30.92
2022-08-19T14:29:18.488Z,30.99
2022-08-19T14:31:46.729Z,30.81
2022-08-19T14:34:14.935Z,30.85
2022-08-19T14:36:43.268Z,30.67
2022-08-19T14:39:11.559Z,30.72
2022-08-19T14:41:42.471Z,30.86
2022-08-19T14:44:13.492Z,30.95
2022-08-19T14:46:41.916Z,30.89
2022-08-19T14:49:19.633Z,31.02
2022-08-19T14:51:48.715Z,30.99
2022-08-19T14:54:17.011Z,30.86
2022-08-19T14:56:45.163Z,30.89
2022-08-19T14:59:14.865Z,30.95
2022-08-19T15:01:44.298Z,30.98
2022-08-19T15:04:12.756Z,30.99
2022-08-19T15:06:41.898Z,31.03
2022-08-19T15:09:10.835Z,31.03
2022-08-19T15:11:39.886Z,30.85
2022-08-19T15:14:08.092Z,30.78
2022-08-19T15:16:42.853Z,30.86
2022-08-19T15:19:11.159Z,30.83
2022-08-19T15:21:39.382Z,30.76
2022-08-19T15:24:08.133Z,30.62
2022-08-19T15:26:36.417Z,30.51
2022-08-19T15:29:06.428Z,30.41
2022-08-19T15:31:38.338Z,30.45
2022-08-19T15:34:08.507Z,30.31
2022-08-19T15:36:36.843Z,30.27
2022-08-19T15:39:07.374Z,30.31
2022-08-19T15:41:36.965Z,30.09
2022-08-19T15:44:09.687Z,30.02
2022-08-19T15:46:40.061Z,29.92
2022-08-19T15:49:11.122Z,29.83
2022-08-19T15:51:40.344Z,29.83
2022-08-19T15:54:10.421Z,29.69
2022-08-19T15:57:02.457Z,29.78
2022-08-19T15:59:56.563Z,29.61
2022-08-19T16:02:53.658Z,29.49
2022-08-19T16:05:43.930Z,29.59
2022-08-19T16:08:12.362Z,29.66
2022-08-19T16:10:41.176Z,29.58
2022-08-19T16:13:10.670Z,29.34
2022-08-19T16:15:44.739Z,29.32
2022-08-19T16:18:12.934Z,29.13
2022-08-19T16:20:42.847Z,28.83
2022-08-19T16:23:11.197Z,28.87
2022-08-19T16:25:39.509Z,28.82
2022-08-19T16:28:08.792Z,28.96
2022-08-19T16:30:38.836Z,28.94
2022-08-19T16:33:07.390Z,28.96
2022-08-19T16:35:35.493Z,28.97
2022-08-19T16:38:07.049Z,28.86
2022-08-19T16:40:36.039Z,28.84
2022-08-19T16:43:06.475Z,29.06
2022-08-19T16:45:34.497Z,28.90
2022-08-19T16:48:04.385Z,28.65
2022-08-19T16:50:48.795Z,28.41
2022-08-19T16:53:21.722Z,27.97
2022-08-19T16:55:57.258Z,27.79
2022-08-19T16:58:28.148Z,28.02
2022-08-19T17:01:01.905Z,27.84
2022-08-19T17:03:36.987Z,27.57
2022-08-19T17:06:16.211Z,27.45
2022-08-19T17:08:52.048Z,27.36
2022-08-19T17:11:21.474Z,25.91
2022-08-19T17:13:51.166Z,25.06
2022-08-19T17:16:22.221Z,24.78
2022-08-19T17:18:53.106Z,24.33
2022-08-19T17:21:27.589Z,23.97
2022-08-19T17:23:58.006Z,23.37
2022-08-19T17:26:27.197Z,22.66
2022-08-19T17:28:57.315Z,22.19
2022-08-19T17:31:28.105Z,21.98
2022-08-19T17:33:59.044Z,21.70
2022-08-19T17:36:29.366Z,21.80
2022-08-19T17:39:02.610Z,22.14
2022-08-19T17:41:33.055Z,22.05
2022-08-19T17:44:01.567Z,21.98
2022-08-19T17:46:30.174Z,21.93
2022-08-19T17:48:59.075Z,21.91
2022-08-19T17:51:42.065Z,21.76
2022-08-19T17:54:15.449Z,22.08
2022-08-19T17:56:44.082Z,22.32
2022-08-19T17:59:14.038Z,22.07
2022-08-19T18:01:52.508Z,21.77
2022-08-19T18:04:23.052Z,21.53
2022-08-19T18:07:12.801Z,21.52
2022-08-19T18:09:49.533Z,21.63
2022-08-19T18:12:17.970Z,21.59
2022-08-19T18:14:46.443Z,21.53
2022-08-19T18:17:19.265Z,21.71
2022-08-19T18:19:48.747Z,21.71
2022-08-19T18:22:25.271Z,21.67
2022-08-19T18:24:55.152Z,21.81
2022-08-19T18:27:23.324Z,21.97
2022-08-19T18:29:51.941Z,21.93
2022-08-19T18:32:23.555Z,21.50
2022-08-19T18:34:52.637Z,21.56
2022-08-19T18:37:21.193Z,21.46
2022-08-19T18:40:06.920Z,21.32
2022-08-19T18:42:54.394Z,21.19
2022-08-19T18:45:40.677Z,21.49
2022-08-19T18:48:29.647Z,21.63
2022-08-19T18:50:59.355Z,21.87
2022-08-19T18:53:29.834Z,21.84
2022-08-19T18:55:58.088Z,21.66
2022-08-19T18:58:34.500Z,21.22
2022-08-19T19:01:11.675Z,21.04
2022-08-19T19:03:43.728Z,20.94
2022-08-19T19:06:12.816Z,20.98
2022-08-19T19:08:41.476Z,21.09
2022-08-19T19:11:10.126Z,21.23
2022-08-19T19:13:41.903Z,21.29
2022-08-19T19:16:12.640Z,21.25
2022-08-19T19:18:41.006Z,21.39
2022-08-19T19:21:10.726Z,21.41
2022-08-19T19:23:41.192Z,21.46
2022-08-19T19:26:16.192Z,21.52
2022-08-19T19:28:47.696Z,21.36
2022-08-19T19:31:19.800Z,21.42
2022-08-19T19:33:48.222Z,21.26
2022-08-19T19:36:17.382Z,21.05
2022-08-19T19:38:48.931Z,21.04
2022-08-19T19:41:21.395Z,21.05
2022-08-19T19:44:10.019Z,21.12
2022-08-19T19:46:42.654Z,21.35
2022-08-19T19:49:12.669Z,21.73
2022-08-19T19:51:41.704Z,21.57
2022-08-19T19:54:14.075Z,21.56
2022-08-19T19:56:45.589Z,21.63
2022-08-19T19:59:15.882Z,21.62
2022-08-19T20:01:46.215Z,21.46
2022-08-19T20:04:16.001Z,21.57
2022-08-19T20:06:45.072Z,21.36
2022-08-19T20:09:16.306Z,21.39
2022-08-19T20:11:50.297Z,21.26
2022-08-19T20:14:26.809Z,21.41
2022-08-19T20:16:56.483Z,21.64
2022-08-19T20:19:27.522Z,21.57
2022-08-19T20:21:57.665Z,21.45
2022-08-19T20:24:32.522Z,21.62
2022-08-19T20:27:00.813Z,21.74
2022-08-19T20:29:38.034Z,21.69
2022-08-19T20:32:07.365Z,21.52
2022-08-19T20:34:37.407Z,21.38
2022-08-19T20:37:07.929Z,21.33
2022-08-19T20:39:37.282Z,21.29
2022-08-19T20:42:05.994Z,21.25
2022-08-19T20:44:36.105Z,21.23
2022-08-19T20:47:04.451Z,21.16
2022-08-19T20:49:33.798Z,21.19
2022-08-19T20:52:07.128Z,21.15
2022-08-19T20:54:35.773Z,21.06
2022-08-19T20:57:05.565Z,21.19
2022-08-19T20:59:39.413Z,21.22
2022-08-19T21:02:07.655Z,21.33
2022-08-19T21:04:35.906Z,21.33
2022-08-19T21:07:04.511Z,21.35
2022-08-19T21:09:32.680Z,21.19
2022-08-19T21:12:05.624Z,21.04
2022-08-19T21:14:39.213Z,20.94
2022-08-19T21:17:11.999Z,20.90
2022-08-19T21:19:40.634Z,20.88
2022-08-19T21:22:09.220Z,20.78
2022-08-19T21:24:38.562Z,20.81
2022-08-19T21:27:07.207Z,20.85
2022-08-19T21:29:39.167Z,20.81
2022-08-19T21:32:08.177Z,20.73
2022-08-19T21:34:38.101Z,20.66
2022-08-19T21:37:06.374Z,20.66
2022-08-19T21:39:52.909Z,20.58
2022-08-19T21:42:21.266Z,20.64
2022-08-19T21:44:53.180Z,20.67
2022-08-19T21:47:21.722Z,20.57
2022-08-19T21:49:50.044Z,20.46
2022-08-19T21:52:22.970Z,20.43
2022-08-19T21:54:51.219Z,20.46
2022-08-19T21:57:19.540Z,20.56
2022-08-19T21:59:47.941Z,20.73
2022-08-19T22:02:21.668Z,20.76
2022-08-19T22:04:52.523Z,20.76
2022-08-19T22:07:23.570Z,20.70
2022-08-19T22:09:52.353Z,20.74
2022-08-19T22:12:24.069Z,20.80
2022-08-19T22:14:53.193Z,20.70
2022-08-19T22:17:23.545Z,20.80
2022-08-19T22:19:52.677Z,20.78
2022-08-19T22:22:24.239Z,20.84
2022-08-19T22:24:52.773Z,20.87
2022-08-19T22:27:21.094Z,20.90
2022-08-19T22:29:52.405Z,20.83
2022-08-19T22:32:26.987Z,21.02
2022-08-19T22:34:59.825Z,20.90
2022-08-19T22:37:29.698Z,20.87
2022-08-19T22:39:57.812Z,20.76
2022-08-19T22:42:31.736Z,20.58
2022-08-19T22:45:01.506Z,20.64
2022-08-19T22:47:32.357Z,20.73
2022-08-19T22:50:09.053Z,20.71
2022-08-19T22:52:51.884Z,20.73
2022-08-19T22:55:20.555Z,20.84
2022-08-19T22:57:48.657Z,20.94
2022-08-19T23:00:17.466Z,20.96
2022-08-19T23:02:51.917Z,21.02
2022-08-19T23:05:22.798Z,21.04
2022-08-19T23:07:52.524Z,20.81
2022-08-19T23:10:26.618Z,20.73
2022-08-19T23:12:57.882Z,20.95
2022-08-19T23:15:28.344Z,21.05
2022-08-19T23:18:00.388Z,21.04
2022-08-19T23:20:30.478Z,21.08
2022-08-19T23:22:59.235Z,21.05
2022-08-19T23:25:33.255Z,20.84
2022-08-19T23:28:19.228Z,20.96
2022-08-19T23:30:48.839Z,21.02
2022-08-19T23:33:26.329Z,21.09
2022-08-19T23:36:17.818Z,20.96
2022-08-19T23:38:47.928Z,20.83
2022-08-19T23:41:17.669Z,20.98
2022-08-19T23:43:46.338Z,21.14
2022-08-19T23:46:27.457Z,21.09
2022-08-19T23:48:58.125Z,20.87
2022-08-19T23:51:26.494Z,20.95
2022-08-19T23:53:55.152Z,21.04
2022-08-19T23:56:26.248Z,21.12
2022-08-19T23:58:55.200Z,21.22
